Time;durP1;ratioP1;P1;durP2;ratioP2;P2;SDS_P1;SDS_P2;PMS_P1;PMS_P2;Temp;Humidity;BMP_temperature;BMP_pressure;BME280_temperature;BME280_humidity;BME280_pressure;Samples;Min_cycle;Max_cycle;Signal;HPM_P1;HPM_P2
2021/05/05 00:00:07;;;;;;;5.53;4.10;;;8.80;99.90;;;;;;5028917;28;20212;-73
2021/05/05 00:02:33;;;;;;;4.43;3.70;;;8.80;99.90;;;;;;5025640;28;20206;-73
2021/05/05 00:05:01;;;;;;;6.37;3.90;;;8.80;99.90;;;;;;5029775;28;20272;-73
2021/05/05 00:07:28;;;;;;;4.37;3.70;;;8.70;99.90;;;;;;5034352;28;20203;-73
2021/05/05 00:09:55;;;;;;;4.40;3.53;;;8.70;99.90;;;;;;5031384;28;20199;-73
2021/05/05 00:12:22;;;;;;;4.40;4.00;;;8.70;99.90;;;;;;5030372;28;20630;-73
2021/05/05 00:14:48;;;;;;;5.50;3.57;;;8.70;99.90;;;;;;5034388;28;20284;-73
2021/05/05 00:17:14;;;;;;;5.23;3.47;;;8.70;99.90;;;;;;5033437;28;20225;-73
2021/05/05 00:19:41;;;;;;;3.70;3.40;;;8.60;99.90;;;;;;5030026;28;20666;-73
2021/05/05 00:22:08;;;;;;;4.47;3.40;;;8.70;99.90;;;;;;5024427;28;20208;-73
2021/05/05 00:24:34;;;;;;;4.13;3.30;;;8.70;99.90;;;;;;5034047;28;20226;-73
2021/05/05 00:27:01;;;;;;;3.77;3.37;;;8.60;99.90;;;;;;5033939;28;20208;-73
2021/05/05 00:29:28;;;;;;;5.63;3.43;;;8.60;99.90;;;;;;5033485;28;20204;-73
2021/05/05 00:31:54;;;;;;;6.03;3.60;;;8.60;99.90;;;;;;5034118;28;20203;-73
2021/05/05 00:34:20;;;;;;;4.43;2.93;;;8.60;99.90;;;;;;5033532;28;20250;-73
2021/05/05 00:36:47;;;;;;;3.97;2.90;;;8.60;99.90;;;;;;5033602;28;20641;-73
2021/05/05 00:39:14;;;;;;;3.40;3.10;;;8.60;99.90;;;;;;5033586;28;20200;-73
2021/05/05 00:41:41;;;;;;;6.33;3.27;;;8.60;99.90;;;;;;5026707;28;20207;-73
2021/05/05 00:44:07;;;;;;;4.80;3.17;;;8.40;99.90;;;;;;5030352;28;20269;-73
2021/05/05 00:46:34;;;;;;;3.33;2.73;;;8.30;99.90;;;;;;5033545;28;20207;-73
2021/05/05 00:49:00;;;;;;;5.30;3.67;;;8.30;99.90;;;;;;5031001;28;20204;-73
2021/05/05 00:51:26;;;;;;;4.17;2.90;;;8.30;99.90;;;;;;5033105;28;20200;-73
2021/05/05 00:53:53;;;;;;;4.03;3.30;;;8.30;99.90;;;;;;5022381;28;20200;-73
2021/05/05 00:56:20;;;;;;;4.80;2.80;;;8.50;99.90;;;;;;5032917;28;20200;-73
2021/05/05 00:58:46;;;;;;;4.17;2.83;;;8.40;99.90;;;;;;5033433;28;20199;-73
2021/05/05 01:01:15;;;;;;;5.20;3.17;;;8.40;99.90;;;;;;5027281;28;20200;-73
2021/05/05 01:03:41;;;;;;;3.43;3.13;;;8.40;99.90;;;;;;5020735;28;20246;-73
2021/05/05 01:06:08;;;;;;;5.83;3.20;;;8.50;99.90;;;;;;5032353;28;20210;-73
2021/05/05 01:08:34;;;;;;;6.33;3.23;;;8.40;99.90;;;;;;5030792;28;20664;-73
2021/05/05 01:11:01;;;;;;;5.43;3.60;;;8.50;99.90;;;;;;5033158;28;20215;-74
2021/05/05 01:13:29;;;;;;;5.80;3.50;;;8.50;99.90;;;;;;5033135;28;20596;-74
2021/05/05 01:15:57;;;;;;;4.93;3.30;;;8.50;99.90;;;;;;5032357;28;20195;-74
2021/05/05 01:18:23;;;;;;;5.90;3.33;;;8.50;99.90;;;;;;5031547;28;20286;-74
2021/05/05 01:20:49;;;;;;;6.23;3.80;;;8.40;99.90;;;;;;5031872;28;20237;-74
2021/05/05 01:23:17;;;;;;;5.37;4.00;;;8.40;99.90;;;;;;5030203;28;20665;-74
2021/05/05 01:25:44;;;;;;;7.53;4.17;;;8.40;99.90;;;;;;5030239;28;20253;-74
2021/05/05 01:28:10;;;;;;;5.37;4.23;;;8.30;99.90;;;;;;5030225;28;20290;-74
2021/05/05 01:30:37;;;;;;;6.67;4.27;;;8.20;99.90;;;;;;5032267;28;20203;-74
2021/05/05 01:33:04;;;;;;;5.80;3.77;;;8.10;99.90;;;;;;5028766;28;20292;-74
2021/05/05 01:35:30;;;;;;;5.90;4.27;;;8.10;99.90;;;;;;5023553;28;20208;-74
2021/05/05 01:37:56;;;;;;;7.03;4.33;;;8.10;99.90;;;;;;5025107;28;20218;-74
2021/05/05 01:40:30;;;;;;;9.47;4.67;;;8.00;99.90;;;;;;5024298;28;20624;-74
2021/05/05 01:42:57;;;;;;;5.87;4.37;;;8.00;99.90;;;;;;5027926;28;20203;-74
2021/05/05 01:45:24;;;;;;;6.40;4.63;;;8.00;99.90;;;;;;5029050;28;20554;-74
2021/05/05 01:47:55;;;;;;;4.70;4.30;;;7.90;99.90;;;;;;5026455;28;20686;-74
2021/05/05 01:50:21;;;;;;;5.43;4.10;;;7.90;99.90;;;;;;5029862;28;20203;-74
2021/05/05 01:52:47;;;;;;;4.87;4.10;;;7.90;99.90;;;;;;5031993;28;20206;-74
2021/05/05 01:55:14;;;;;;;5.67;4.20;;;7.90;99.90;;;;;;5032226;28;20196;-74
2021/05/05 01:57:43;;;;;;;4.23;3.83;;;8.00;99.90;;;;;;5031190;28;20262;-74
2021/05/05 02:00:13;;;;;;;5.50;4.53;;;8.00;99.90;;;;;;5031273;28;20206;-74
2021/05/05 02:02:40;;;;;;;5.77;4.10;;;8.00;99.90;;;;;;5031467;28;20233;-74
2021/05/05 02:05:08;;;;;;;4.40;4.00;;;8.00;99.90;;;;;;5031623;28;20220;-74
2021/05/05 02:07:35;;;;;;;5.23;4.37;;;8.00;99.90;;;;;;5028749;28;20287;-74
2021/05/05 02:10:01;;;;;;;6.43;4.67;;;8.00;99.90;;;;;;5030905;28;20646;-74
2021/05/05 02:12:29;;;;;;;5.67;4.30;;;7.90;99.90;;;;;;5030864;28;20219;-74
2021/05/05 02:14:56;;;;;;;6.73;4.57;;;8.00;99.90;;;;;;5030472;28;20207;-74
2021/05/05 02:17:23;;;;;;;5.57;5.00;;;7.90;99.90;;;;;;5030933;28;20269;-74
2021/05/05 02:19:49;;;;;;;8.13;4.70;;;7.90;99.90;;;;;;5030467;28;20288;-74
2021/05/05 02:22:16;;;;;;;5.47;4.87;;;7.80;99.90;;;;;;5028778;28;20646;-74
2021/05/05 02:24:42;;;;;;;7.27;4.90;;;7.80;99.90;;;;;;5031544;28;20772;-74
2021/05/05 02:27:09;;;;;;;5.77;5.17;;;7.80;99.90;;;;;;5029997;28;20712;-74
2021/05/05 02:29:35;;;;;;;6.20;5.33;;;7.90;99.90;;;;;;5031755;28;20688;-74
2021/05/05 02:32:07;;;;;;;7.90;5.40;;;7.80;99.90;;;;;;5032562;28;20204;-74
2021/05/05 02:34:33;;;;;;;6.30;5.07;;;7.80;99.90;;;;;;5034780;28;20232;-74
2021/05/05 02:37:03;;;;;;;8.00;5.30;;;7.80;99.90;;;;;;5033741;28;20214;-74
2021/05/05 02:39:29;;;;;;;6.40;5.00;;;7.80;99.90;;;;;;5029573;28;20221;-74
2021/05/05 02:41:56;;;;;;;6.50;4.93;;;7.70;99.90;;;;;;5035790;28;20199;-75
2021/05/05 02:44:22;;;;;;;8.67;5.27;;;7.70;99.90;;;;;;5031297;28;20297;-74
2021/05/05 02:46:49;;;;;;;6.60;5.53;;;7.70;99.90;;;;;;5031607;28;20612;-74
2021/05/05 02:49:16;;;;;;;5.37;4.60;;;7.70;99.90;;;;;;5035405;28;20208;-74
2021/05/05 02:51:43;;;;;;;6.17;5.37;;;7.70;99.90;;;;;;5032534;28;20211;-74
2021/05/05 02:54:09;;;;;;;5.97;4.87;;;7.80;99.90;;;;;;5035805;28;20204;-74
2021/05/05 02:56:35;;;;;;;5.70;5.10;;;7.70;99.90;;;;;;5034024;28;20585;-74
2021/05/05 02:59:02;;;;;;;5.60;4.97;;;7.70;99.90;;;;;;5034550;28;20208;-74
2021/05/05 03:01:28;;;;;;;6.80;5.00;;;7.70;99.90;;;;;;5033384;28;20203;-74
2021/05/05 03:03:55;;;;;;;7.40;5.33;;;7.80;99.90;;;;;;5035264;28;20675;-74
2021/05/05 03:06:22;;;;;;;5.60;4.93;;;7.80;99.90;;;;;;5034493;28;20203;-74
2021/05/05 03:08:48;;;;;;;5.27;4.77;;;7.70;99.90;;;;;;5032576;28;20295;-74
2021/05/05 03:11:15;;;;;;;6.20;5.60;;;7.80;99.90;;;;;;5034281;28;20204;-74
2021/05/05 03:13:41;;;;;;;6.10;4.93;;;7.80;99.90;;;;;;5028828;28;20692;-75
2021/05/05 03:16:08;;;;;;;5.93;4.63;;;7.80;99.90;;;;;;5031334;28;20222;-74
2021/05/05 03:18:34;;;;;;;5.60;4.60;;;7.70;99.90;;;;;;5030944;28;20202;-74
2021/05/05 03:21:00;;;;;;;5.57;4.43;;;7.70;99.90;;;;;;5032003;28;20566;-74
2021/05/05 03:23:28;;;;;;;6.93;4.80;;;7.70;99.90;;;;;;5032729;28;20599;-74
2021/05/05 03:25:55;;;;;;;5.87;5.37;;;7.70;99.90;;;;;;5027443;28;20223;-74
2021/05/05 03:28:21;;;;;;;7.53;5.53;;;7.70;99.90;;;;;;5012312;28;20287;-74
2021/05/05 03:30:48;;;;;;;6.03;5.37;;;7.70;99.90;;;;;;5012804;28;20211;-74
2021/05/05 03:33:14;;;;;;;6.63;5.50;;;7.70;99.90;;;;;;5014272;28;20197;-74
2021/05/05 03:35:41;;;;;;;7.27;5.73;;;7.70;99.90;;;;;;5009823;28;20201;-74
2021/05/05 03:38:07;;;;;;;8.97;6.40;;;7.60;99.90;;;;;;5013189;28;20209;-74
2021/05/05 03:40:35;;;;;;;7.83;5.40;;;7.60;99.90;;;;;;5005389;28;20284;-74
2021/05/05 03:43:02;;;;;;;6.23;5.63;;;7.60;99.90;;;;;;5012471;28;20204;-74
2021/05/05 03:45:28;;;;;;;7.07;5.27;;;7.60;99.90;;;;;;5012966;28;20200;-74
2021/05/05 03:47:55;;;;;;;7.07;5.23;;;7.60;99.90;;;;;;5009663;28;20655;-74
2021/05/05 03:50:22;;;;;;;6.80;5.17;;;7.60;99.90;;;;;;5011600;28;20207;-74
2021/05/05 03:52:49;;;;;;;8.27;5.57;;;7.60;99.90;;;;;;5012168;28;20572;-74
2021/05/05 03:55:16;;;;;;;7.47;4.77;;;7.70;99.90;;;;;;5014270;28;20200;-75
2021/05/05 03:57:43;;;;;;;6.80;5.30;;;7.70;99.90;;;;;;5013798;28;20211;-74
2021/05/05 04:00:11;;;;;;;7.63;5.40;;;7.70;99.90;;;;;;5014214;28;20219;-74
2021/05/05 04:02:37;;;;;;;7.37;5.83;;;7.70;99.90;;;;;;5009656;28;20211;-74
2021/05/05 04:05:04;;;;;;;9.67;6.20;;;7.70;99.90;;;;;;5008566;28;20224;-74
2021/05/05 04:07:31;;;;;;;7.90;5.47;;;7.70;99.90;;;;;;5008917;28;20209;-74
2021/05/05 04:09:57;;;;;;;7.30;5.27;;;7.70;99.90;;;;;;5012054;28;20209;-74
2021/05/05 04:12:24;;;;;;;8.50;5.67;;;7.60;99.90;;;;;;5013067;28;20204;-74
2021/05/05 04:14:51;;;;;;;6.37;5.23;;;7.70;99.90;;;;;;5012139;28;20651;-74
2021/05/05 04:17:17;;;;;;;7.60;5.23;;;7.70;99.90;;;;;;5013011;28;20209;-74
2021/05/05 04:19:44;;;;;;;6.53;5.47;;;7.60;99.90;;;;;;5011870;28;20654;-74
2021/05/05 04:22:11;;;;;;;8.60;5.97;;;7.70;99.90;;;;;;5012402;28;20196;-74
2021/05/05 04:24:37;;;;;;;7.47;5.77;;;7.60;99.90;;;;;;5010864;28;20703;-74
2021/05/05 04:27:04;;;;;;;7.27;6.50;;;7.60;99.90;;;;;;5016351;28;20212;-74
2021/05/05 04:29:30;;;;;;;8.13;6.07;;;7.60;99.90;;;;;;5015707;28;20207;-74
2021/05/05 04:31:58;;;;;;;9.50;6.20;;;7.60;99.90;;;;;;5031561;28;20575;-74
2021/05/05 04:34:26;;;;;;;7.93;6.00;;;7.70;99.90;;;;;;5029954;28;20196;-75
2021/05/05 04:36:53;;;;;;;7.13;5.63;;;7.60;99.90;;;;;;5020948;28;20200;-74
2021/05/05 04:39:20;;;;;;;7.33;5.70;;;7.60;99.90;;;;;;5031494;28;20225;-74
2021/05/05 04:41:46;;;;;;;8.90;6.00;;;7.60;99.90;;;;;;5031580;28;20567;-74
2021/05/05 04:44:13;;;;;;;10.80;6.03;;;7.60;99.90;;;;;;5032267;28;20589;-74
2021/05/05 04:46:39;;;;;;;7.57;5.63;;;7.70;99.90;;;;;;5022245;28;20265;-74
2021/05/05 04:49:06;;;;;;;6.37;5.07;;;7.70;99.90;;;;;;5026430;28;20246;-74
2021/05/05 04:51:33;;;;;;;6.20;4.80;;;7.70;99.90;;;;;;5030309;28;20195;-75
2021/05/05 04:54:00;;;;;;;7.20;4.83;;;7.70;99.90;;;;;;5030743;28;20200;-75
2021/05/05 04:56:26;;;;;;;4.87;4.33;;;7.70;99.90;;;;;;5030318;28;20211;-73
2021/05/05 04:58:52;;;;;;;5.47;4.50;;;7.70;99.90;;;;;;5025968;28;20662;-73
2021/05/05 05:01:19;;;;;;;7.20;4.33;;;7.70;99.90;;;;;;5027169;28;20200;-73
2021/05/05 05:03:45;;;;;;;7.23;4.40;;;7.70;99.90;;;;;;5023023;28;20225;-73
2021/05/05 05:06:12;;;;;;;6.03;3.93;;;7.70;99.90;;;;;;5031321;28;20616;-73
2021/05/05 05:08:39;;;;;;;7.53;4.70;;;7.80;99.90;;;;;;5032242;28;20670;-72
2021/05/05 05:11:05;;;;;;;6.97;4.07;;;7.80;99.90;;;;;;5032945;28;20203;-72
2021/05/05 05:13:31;;;;;;;6.53;4.33;;;7.80;99.90;;;;;;5032362;28;20207;-72
2021/05/05 05:15:58;;;;;;;7.17;4.83;;;7.90;99.90;;;;;;5031783;28;20211;-72
2021/05/05 05:18:24;;;;;;;7.10;3.90;;;7.80;99.90;;;;;;5032133;28;20207;-72
2021/05/05 05:20:51;;;;;;;5.50;4.23;;;7.80;99.90;;;;;;5030768;28;20571;-73
2021/05/05 05:23:18;;;;;;;4.67;3.70;;;7.70;99.90;;;;;;5032455;28;20203;-72
2021/05/05 05:25:45;;;;;;;7.70;3.60;;;7.40;99.90;;;;;;5032577;28;20199;-72
2021/05/05 05:28:11;;;;;;;4.63;3.70;;;7.10;99.90;;;;;;5026056;28;20579;-72
2021/05/05 05:30:37;;;;;;;5.77;3.13;;;7.00;99.90;;;;;;5032554;28;20674;-72
2021/05/05 05:33:04;;;;;;;5.17;3.47;;;6.90;99.90;;;;;;5026597;28;20209;-72
2021/05/05 05:35:31;;;;;;;6.77;3.70;;;6.90;99.90;;;;;;5028678;28;20287;-72
2021/05/05 05:37:57;;;;;;;5.20;4.30;;;6.90;99.90;;;;;;5031801;28;20260;-72
2021/05/05 05:40:24;;;;;;;6.03;4.20;;;6.90;99.90;;;;;;5032154;28;20226;-72
2021/05/05 05:42:51;;;;;;;4.43;4.03;;;7.00;99.90;;;;;;5032460;28;20203;-72
2021/05/05 05:45:18;;;;;;;7.00;4.57;;;7.00;99.90;;;;;;5031624;28;20223;-72
2021/05/05 05:47:45;;;;;;;8.40;4.87;;;7.10;99.90;;;;;;5031780;28;20199;-72
2021/05/05 05:50:13;;;;;;;8.13;4.87;;;7.30;99.90;;;;;;5030543;28;20646;-73
2021/05/05 05:52:40;;;;;;;8.20;5.50;;;7.50;99.90;;;;;;5026256;28;20601;-72
2021/05/05 05:55:09;;;;;;;7.53;4.87;;;7.50;99.90;;;;;;5025141;28;20355;-72
2021/05/05 05:57:37;;;;;;;8.37;4.87;;;7.70;99.90;;;;;;5031962;28;20646;-73
2021/05/05 06:00:06;;;;;;;8.17;5.13;;;7.70;99.90;;;;;;5024036;28;20579;-72
2021/05/05 06:02:32;;;;;;;7.53;5.53;;;7.70;99.90;;;;;;5026619;28;20241;-72
2021/05/05 06:04:59;;;;;;;8.40;5.10;;;7.70;99.90;;;;;;5029197;28;20660;-72
2021/05/05 06:07:25;;;;;;;7.97;4.00;;;7.70;99.90;;;;;;5031751;28;20204;-72
2021/05/05 06:09:51;;;;;;;6.23;3.80;;;7.70;99.90;;;;;;5030448;28;20203;-72
2021/05/05 06:12:18;;;;;;;6.80;3.83;;;7.80;99.90;;;;;;5021874;28;20196;-72
2021/05/05 06:14:45;;;;;;;7.70;4.10;;;7.80;99.90;;;;;;5031605;28;20210;-72
2021/05/05 06:17:11;;;;;;;5.73;4.17;;;7.90;99.90;;;;;;5030874;28;20218;-73
2021/05/05 06:19:37;;;;;;;6.57;4.87;;;8.00;99.90;;;;;;5031625;28;20200;-72
2021/05/05 06:22:04;;;;;;;7.03;4.60;;;7.90;99.90;;;;;;5031417;28;20658;-72
2021/05/05 06:24:31;;;;;;;7.23;4.60;;;8.30;99.90;;;;;;5031475;28;20677;-73
2021/05/05 06:27:00;;;;;;;9.37;5.37;;;8.70;99.90;;;;;;5031621;28;20219;-72
2021/05/05 06:29:26;;;;;;;6.37;3.90;;;9.00;99.90;;;;;;5031547;28;20199;-72
2021/05/05 06:31:53;;;;;;;5.73;4.30;;;9.00;99.90;;;;;;5031523;28;20203;-73
2021/05/05 06:34:20;;;;;;;9.23;4.63;;;9.10;99.90;;;;;;5031822;28;20219;-72
2021/05/05 06:36:46;;;;;;;8.90;4.77;;;9.40;99.90;;;;;;5031667;28;20204;-72
2021/05/05 06:39:12;;;;;;;4.63;3.53;;;9.10;99.90;;;;;;5031397;28;20208;-72
2021/05/05 06:41:39;;;;;;;5.53;3.77;;;8.90;99.90;;;;;;5018679;28;20571;-73
2021/05/05 06:44:07;;;;;;;4.67;4.07;;;8.80;99.90;;;;;;5023663;28;20232;-73
2021/05/05 06:46:34;;;;;;;8.00;4.23;;;8.90;99.90;;;;;;5024146;28;20208;-72
2021/05/05 06:49:02;;;;;;;5.10;3.40;;;9.50;99.90;;;;;;5031452;28;20208;-73
2021/05/05 06:51:28;;;;;;;3.50;3.03;;;10.10;99.90;;;;;;5024761;28;20207;-72
2021/05/05 06:53:55;;;;;;;5.07;3.53;;;11.00;99.90;;;;;;5031612;28;20200;-72
2021/05/05 06:56:21;;;;;;;6.00;2.67;;;10.10;99.90;;;;;;5027966;28;20204;-73
2021/05/05 06:58:48;;;;;;;6.03;2.87;;;9.20;99.90;;;;;;5018494;28;20204;-72
2021/05/05 07:01:14;;;;;;;4.20;2.60;;;8.90;99.90;;;;;;5031676;28;20269;-72
2021/05/05 07:03:41;;;;;;;5.27;2.97;;;8.70;99.90;;;;;;5026506;28;20231;-73
2021/05/05 07:06:08;;;;;;;4.47;3.00;;;8.60;99.90;;;;;;5024613;28;20567;-72
2021/05/05 07:08:34;;;;;;;5.27;2.93;;;8.60;99.90;;;;;;5031070;28;20211;-73
2021/05/05 07:11:00;;;;;;;3.93;2.40;;;8.60;99.90;;;;;;5031029;28;20567;-73
2021/05/05 07:13:27;;;;;;;7.90;2.93;;;8.70;99.90;;;;;;5031218;28;20207;-72
2021/05/05 07:15:53;;;;;;;5.80;2.20;;;8.70;99.90;;;;;;5034511;28;20208;-72
2021/05/05 07:18:19;;;;;;;6.30;2.40;;;8.70;99.90;;;;;;5034566;28;20299;-72
2021/05/05 07:20:46;;;;;;;3.13;2.33;;;8.60;99.90;;;;;;5034456;28;20200;-73
2021/05/05 07:23:13;;;;;;;6.77;2.63;;;8.70;99.90;;;;;;5031168;28;20207;-72
2021/05/05 07:25:39;;;;;;;6.30;3.23;;;9.00;99.90;;;;;;5022636;28;20223;-72
2021/05/05 07:28:05;;;;;;;5.93;3.30;;;9.10;99.90;;;;;;5033081;28;20212;-72
2021/05/05 07:30:32;;;;;;;5.77;3.20;;;9.10;99.90;;;;;;5027450;28;20204;-72
2021/05/05 07:32:58;;;;;;;4.97;2.83;;;9.40;99.90;;;;;;5034742;28;20207;-73
2021/05/05 07:35:25;;;;;;;5.33;2.67;;;9.60;99.90;;;;;;5027013;28;20600;-73
2021/05/05 07:46:06;;;;;;;8.43;2.90;;;9.40;99.90;;;;;;5031263;28;20210;-72
2021/05/05 07:48:37;;;;;;;7.97;2.80;;;9.60;99.90;;;;;;5032797;28;20207;-73
2021/05/05 07:51:04;;;;;;;8.40;3.03;;;9.90;99.90;;;;;;5020543;28;20233;-73
2021/05/05 07:53:31;;;;;;;6.80;2.80;;;10.00;99.90;;;;;;5022060;28;20667;-73
2021/05/05 07:55:59;;;;;;;4.53;2.50;;;10.20;99.90;;;;;;5034301;28;20203;-72
2021/05/05 07:58:27;;;;;;;4.90;2.80;;;10.20;99.90;;;;;;5034353;28;20255;-72
2021/05/05 08:00:53;;;;;;;7.80;2.40;;;10.00;99.90;;;;;;5033126;28;20207;-73
2021/05/05 08:03:20;;;;;;;6.93;2.93;;;10.00;99.90;;;;;;5016172;28;20209;-72
2021/05/05 08:05:46;;;;;;;6.40;2.40;;;10.20;99.90;;;;;;5027265;28;20207;-73
2021/05/05 08:08:13;;;;;;;6.40;2.80;;;10.50;99.90;;;;;;5033992;28;20207;-73
2021/05/05 08:10:39;;;;;;;5.30;2.53;;;10.60;99.90;;;;;;5034099;28;20295;-73
2021/05/05 08:13:07;;;;;;;4.17;2.50;;;10.90;99.90;;;;;;5030598;28;20203;-72
2021/05/05 08:15:35;;;;;;;6.83;2.27;;;10.60;99.90;;;;;;5032375;28;20250;-73
2021/05/05 08:18:01;;;;;;;2.33;1.77;;;10.40;99.90;;;;;;5028299;28;20211;-73
2021/05/05 08:20:28;;;;;;;8.53;3.03;;;10.50;99.90;;;;;;5021660;28;20204;-72
2021/05/05 08:22:55;;;;;;;4.07;2.07;;;10.50;99.90;;;;;;5032678;28;20215;-72
2021/05/05 08:25:22;;;;;;;8.97;2.40;;;10.40;99.90;;;;;;5033509;28;20251;-72
2021/05/05 08:27:48;;;;;;;6.10;2.00;;;10.40;99.90;;;;;;5052213;23;20223;-67
2021/05/05 08:30:17;;;;;;;8.43;2.60;;;10.30;99.90;;;;;;5017884;28;20204;-68
2021/05/05 08:32:44;;;;;;;6.67;2.13;;;10.60;99.90;;;;;;5031757;28;20691;-68
2021/05/05 08:35:11;;;;;;;5.93;2.00;;;11.00;99.90;;;;;;5027614;28;20204;-68
2021/05/05 08:37:37;;;;;;;3.80;2.00;;;11.10;99.90;;;;;;5032117;28;20219;-68
2021/05/05 08:40:06;;;;;;;7.20;1.93;;;10.90;99.90;;;;;;5032983;28;20208;-68
2021/05/05 08:42:32;;;;;;;6.47;2.10;;;10.90;99.90;;;;;;5032382;28;20226;-68
2021/05/05 08:44:59;;;;;;;7.10;2.20;;;11.30;99.90;;;;;;5032930;28;20587;-68
2021/05/05 08:47:27;;;;;;;7.43;2.50;;;11.20;99.90;;;;;;5019289;28;20215;-69
2021/05/05 08:49:54;;;;;;;7.17;2.37;;;10.80;99.90;;;;;;5018177;28;20213;-69
2021/05/05 08:52:20;;;;;;;4.57;2.30;;;10.40;99.90;;;;;;5030689;28;20207;-69
2021/05/05 08:54:47;;;;;;;7.17;2.57;;;10.60;99.90;;;;;;5031020;28;20664;-68
2021/05/05 08:57:15;;;;;;;5.20;2.20;;;10.10;99.90;;;;;;5030847;28;20207;-69
2021/05/05 08:59:41;;;;;;;4.20;2.40;;;10.20;99.90;;;;;;5034571;28;20303;-69
2021/05/05 09:02:08;;;;;;;4.63;2.60;;;10.50;99.90;;;;;;5032610;28;20204;-68
2021/05/05 09:04:36;;;;;;;4.03;2.20;;;10.70;99.90;;;;;;5031501;28;20308;-69
2021/05/05 09:07:03;;;;;;;5.50;2.40;;;10.50;99.90;;;;;;5032293;28;20599;-68
2021/05/05 09:09:37;;;;;;;3.73;2.27;;;10.30;99.90;;;;;;5032693;28;20258;-68
2021/05/05 09:12:20;;;;;;;7.30;3.03;;;10.40;99.90;;;;;;5031479;28;20199;-68
2021/05/05 09:14:57;;;;;;;6.70;2.47;;;10.70;99.90;;;;;;5031048;28;20563;-68
2021/05/05 09:17:26;;;;;;;7.00;2.50;;;10.80;99.90;;;;;;5028540;28;20212;-68
2021/05/05 09:20:31;;;;;;;5.23;2.20;;;11.10;99.90;;;;;;5031097;28;20204;-69
2021/05/05 09:23:00;;;;;;;8.23;2.27;;;10.80;99.90;;;;;;5028914;28;20784;-69
2021/05/05 09:25:41;;;;;;;7.50;2.63;;;10.70;99.90;;;;;;5026174;28;20229;-68
2021/05/05 09:28:13;;;;;;;8.13;2.33;;;10.30;99.90;;;;;;5024202;28;20643;-68
2021/05/05 09:30:42;;;;;;;5.67;2.60;;;10.00;99.90;;;;;;5028133;28;20261;-68
2021/05/05 09:33:09;;;;;;;7.53;3.30;;;9.20;99.90;;;;;;5025702;28;20254;-68
2021/05/05 09:35:36;;;;;;;7.93;3.30;;;8.90;99.90;;;;;;5021381;28;20205;-68
2021/05/05 09:38:07;;;;;;;8.40;3.77;;;9.60;99.90;;;;;;5027045;28;20265;-68
2021/05/05 09:40:34;;;;;;;7.77;3.50;;;10.20;99.90;;;;;;5026555;28;20621;-69
2021/05/05 09:43:16;;;;;;;7.40;3.90;;;10.80;99.90;;;;;;5027252;28;20211;-69
2021/05/05 09:45:43;;;;;;;6.87;4.10;;;11.30;99.90;;;;;;5026576;28;20227;-69
2021/05/05 09:48:10;;;;;;;7.03;2.73;;;11.10;99.90;;;;;;5027746;28;20262;-69
2021/05/05 09:50:38;;;;;;;4.83;3.00;;;10.50;99.90;;;;;;5023510;28;20627;-69
2021/05/05 09:53:23;;;;;;;4.60;2.60;;;11.30;99.90;;;;;;5027638;28;20234;-69
2021/05/05 09:56:09;;;;;;;5.63;2.60;;;11.90;99.90;;;;;;5021221;28;20230;-69
2021/05/05 09:58:36;;;;;;;8.07;2.47;;;12.10;99.90;;;;;;5019757;28;20307;-68
2021/05/05 10:01:20;;;;;;;5.53;2.70;;;12.70;99.90;;;;;;5026965;28;20211;-68
2021/05/05 10:03:48;;;;;;;11.13;2.60;;;12.00;99.90;;;;;;5024910;28;20670;-68
2021/05/05 10:06:26;;;;;;;7.77;3.30;;;12.10;99.90;;;;;;5025407;28;20233;-68
2021/05/05 10:08:56;;;;;;;4.73;2.97;;;11.70;99.90;;;;;;5027284;28;20203;-68
2021/05/05 10:11:23;;;;;;;5.50;2.40;;;11.60;99.90;;;;;;5023235;28;20727;-69
2021/05/05 10:13:55;;;;;;;4.57;2.93;;;12.20;99.90;;;;;;5028064;28;20587;-68
2021/05/05 10:16:23;;;;;;;4.83;2.90;;;11.90;99.90;;;;;;5023233;28;20208;-68
2021/05/05 10:18:50;;;;;;;6.53;2.80;;;11.50;99.90;;;;;;5027008;28;20299;-68
2021/05/05 10:21:20;;;;;;;3.83;2.60;;;11.80;99.90;;;;;;5023117;28;20215;-68
2021/05/05 10:23:48;;;;;;;4.77;2.77;;;11.30;99.90;;;;;;5028147;28;20204;-68
2021/05/05 10:26:18;;;;;;;3.53;2.47;;;11.30;99.90;;;;;;5027252;28;20214;-68
2021/05/05 10:28:45;;;;;;;5.60;2.63;;;12.10;99.90;;;;;;5024615;28;20207;-68
2021/05/05 10:31:17;;;;;;;6.53;2.73;;;12.70;99.90;;;;;;5027033;28;20657;-69
2021/05/05 10:33:45;;;;;;;6.23;2.57;;;12.40;99.90;;;;;;5021673;28;20499;-68
2021/05/05 10:36:28;;;;;;;6.93;2.80;;;13.10;99.90;;;;;;5024669;28;20215;-69
2021/05/05 10:38:55;;;;;;;7.57;2.50;;;13.10;99.90;;;;;;5024308;28;20203;-68
2021/05/05 10:41:22;;;;;;;4.83;2.27;;;13.30;99.90;;;;;;5026968;28;20199;-69
2021/05/05 10:43:50;;;;;;;5.70;2.77;;;12.80;99.90;;;;;;5025215;28;20206;-68
2021/05/05 10:46:28;;;;;;;6.83;2.70;;;12.80;99.90;;;;;;5026228;28;20665;-68
2021/05/05 10:49:09;;;;;;;4.63;2.60;;;12.70;99.90;;;;;;5026310;28;20207;-69
2021/05/05 10:52:01;;;;;;;4.30;2.33;;;13.00;99.90;;;;;;5027525;28;20203;-68
2021/05/05 10:54:51;;;;;;;3.50;2.13;;;12.80;99.90;;;;;;5032978;28;20231;-68
2021/05/05 10:57:19;;;;;;;4.80;2.37;;;13.10;99.90;;;;;;5028331;28;20211;-69
2021/05/05 11:00:12;;;;;;;4.17;2.13;;;13.20;99.90;;;;;;5029412;28;20207;-69
2021/05/05 11:02:58;;;;;;;4.30;2.23;;;13.10;99.90;;;;;;5028530;28;20926;-68
2021/05/05 11:05:35;;;;;;;3.93;2.17;;;13.40;99.90;;;;;;5030279;28;20223;-68
2021/05/05 11:08:04;;;;;;;3.87;2.20;;;13.90;99.90;;;;;;5025992;28;20208;-68
2021/05/05 11:10:48;;;;;;;3.93;2.50;;;13.70;99.90;;;;;;5028136;28;20224;-69
2021/05/05 11:13:41;;;;;;;6.37;2.40;;;13.20;99.90;;;;;;5026170;28;20211;-68
2021/05/05 11:16:08;;;;;;;4.50;2.30;;;13.10;99.90;;;;;;5025891;28;20243;-68
2021/05/05 11:18:48;;;;;;;4.70;2.23;;;13.50;99.90;;;;;;5022523;28;20212;-68
2021/05/05 11:21:42;;;;;;;5.27;2.70;;;13.00;99.90;;;;;;5028018;28;20231;-69
2021/05/05 11:24:35;;;;;;;5.13;2.50;;;13.00;99.90;;;;;;5026995;28;20233;-68
2021/05/05 11:27:02;;;;;;;3.13;2.27;;;12.40;99.90;;;;;;5022616;28;20269;-68
2021/05/05 11:29:37;;;;;;;6.20;3.20;;;11.80;99.90;;;;;;5008324;28;20270;-68
2021/05/05 11:32:07;;;;;;;3.90;3.20;;;11.10;99.90;;;;;;5009795;28;20216;-69
2021/05/05 11:34:35;;;;;;;6.10;3.97;;;10.60;99.90;;;;;;5010031;28;21170;-68
2021/05/05 11:37:13;;;;;;;6.83;4.70;;;10.90;99.90;;;;;;5009664;28;20219;-68
2021/05/05 11:39:41;;;;;;;6.80;3.70;;;11.20;99.90;;;;;;5000445;28;20219;-68
2021/05/05 11:42:11;;;;;;;5.73;4.27;;;11.40;99.90;;;;;;5004144;28;20789;-68
2021/05/05 11:44:40;;;;;;;7.67;3.70;;;11.90;99.90;;;;;;5008333;28;20225;-68
2021/05/05 11:47:09;;;;;;;8.40;3.80;;;12.10;99.90;;;;;;5007813;28;20610;-69
2021/05/05 11:49:38;;;;;;;4.27;3.53;;;12.30;99.90;;;;;;5005930;28;20216;-68
2021/05/05 11:52:25;;;;;;;7.27;3.03;;;11.90;99.90;;;;;;5008412;28;20212;-68
2021/05/05 11:54:56;;;;;;;5.33;2.80;;;12.10;99.90;;;;;;5009109;28;20238;-68
2021/05/05 11:57:23;;;;;;;5.53;2.40;;;12.70;99.90;;;;;;5010280;28;20678;-68
2021/05/05 11:59:51;;;;;;;3.27;2.37;;;12.70;99.90;;;;;;5011949;28;20702;-68
2021/05/05 12:02:21;;;;;;;4.63;2.20;;;13.50;99.90;;;;;;5003556;28;20227;-68
2021/05/05 12:04:49;;;;;;;2.30;1.80;;;13.20;99.90;;;;;;5012795;28;20236;-68
2021/05/05 12:07:18;;;;;;;3.93;1.30;;;12.60;99.90;;;;;;5005503;28;20583;-68
2021/05/05 12:09:46;;;;;;;2.77;1.60;;;11.50;99.90;;;;;;5009255;28;21581;-69
2021/05/05 12:12:27;;;;;;;3.20;1.30;;;9.80;99.90;;;;;;5009292;28;20543;-68
2021/05/05 12:14:56;;;;;;;1.47;1.37;;;9.40;99.90;;;;;;5004231;28;20204;-69
2021/05/05 12:17:27;;;;;;;3.50;2.27;;;9.90;99.90;;;;;;5009317;28;20254;-68
2021/05/05 12:20:03;;;;;;;2.83;1.57;;;10.10;99.90;;;;;;5007917;28;20205;-68
2021/05/05 12:22:30;;;;;;;1.90;1.50;;;10.30;99.90;;;;;;4991691;28;20278;-69
2021/05/05 12:25:18;;;;;;;3.60;1.60;;;10.30;99.90;;;;;;5008553;28;20705;-68
2021/05/05 12:28:02;;;;;;;2.73;1.50;;;10.40;99.90;;;;;;5006290;28;20579;-68
2021/05/05 12:30:44;;;;;;;1.60;1.50;;;10.40;99.90;;;;;;5028317;28;20204;-69
2021/05/05 12:33:11;;;;;;;3.53;2.20;;;10.60;99.90;;;;;;5023446;28;20208;-68
2021/05/05 12:35:38;;;;;;;13.17;5.87;;;10.70;99.90;;;;;;5029293;28;20212;-69
2021/05/05 12:38:11;;;;;;;6.63;4.30;;;10.50;99.90;;;;;;5025363;28;20665;-69
2021/05/05 12:40:38;;;;;;;3.17;2.23;;;10.20;99.90;;;;;;5027038;28;20204;-68
2021/05/05 12:43:22;;;;;;;3.60;2.60;;;9.10;99.90;;;;;;5025678;28;20218;-69
2021/05/05 12:45:52;;;;;;;5.70;2.20;;;8.60;99.90;;;;;;5029363;28;20223;-69
2021/05/05 12:48:25;;;;;;;1.90;1.67;;;8.60;99.90;;;;;;5023561;28;20508;-69
2021/05/05 12:50:51;;;;;;;5.00;1.90;;;8.70;99.90;;;;;;5028881;28;20211;-69
2021/05/05 12:53:18;;;;;;;4.20;1.90;;;8.90;99.90;;;;;;5029131;28;20661;-69
2021/05/05 12:55:54;;;;;;;4.27;2.10;;;9.10;99.90;;;;;;5023892;28;20204;-68
2021/05/05 12:58:20;;;;;;;2.83;2.00;;;9.40;99.90;;;;;;5027001;28;20217;-69
2021/05/05 13:00:49;;;;;;;5.03;2.87;;;9.60;99.90;;;;;;5028725;28;20214;-69
2021/05/05 13:03:19;;;;;;;4.93;2.40;;;9.80;99.90;;;;;;5028947;28;20692;-69
2021/05/05 13:06:04;;;;;;;3.07;1.77;;;9.90;99.90;;;;;;5024159;28;20302;-69
2021/05/05 13:08:35;;;;;;;4.20;1.60;;;10.30;99.90;;;;;;5019617;28;20224;-69